createdAt,value
2022-10-16T00:02:26.127Z,13.80
2022-10-16T00:07:28.602Z,13.80
2022-10-16T00:12:30.456Z,13.80
2022-10-16T00:17:32.328Z,13.80
2022-10-16T00:22:34.316Z,13.80
2022-10-16T00:27:36.470Z,13.80
2022-10-16T00:32:38.206Z,13.80
2022-10-16T00:37:39.938Z,13.80
2022-10-16T00:42:41.698Z,13.80
2022-10-16T00:47:48.187Z,13.80
2022-10-16T00:52:52.320Z,13.80
2022-10-16T00:57:54.880Z,13.70
2022-10-16T01:02:59.390Z,13.70
2022-10-16T01:08:15.047Z,13.70
2022-10-16T01:13:26.262Z,13.80
2022-10-16T01:18:38.822Z,13.80
2022-10-16T01:24:08.971Z,13.70
2022-10-16T01:29:19.461Z,13.70
2022-10-16T01:34:29.468Z,13.70
2022-10-16T01:39:34.616Z,13.70
2022-10-16T01:44:38.103Z,13.70
2022-10-16T01:49:41.921Z,13.70
2022-10-16T01:54:47.123Z,13.70
2022-10-16T01:59:52.421Z,13.60
2022-10-16T02:05:09.031Z,13.60
2022-10-16T02:10:11.529Z,13.60
2022-10-16T02:15:13.495Z,13.60
2022-10-16T02:20:15.569Z,13.60
2022-10-16T02:25:31.382Z,13.50
2022-10-16T02:30:44.851Z,13.50
2022-10-16T02:35:49.028Z,13.40
2022-10-16T02:40:50.906Z,13.40
2022-10-16T02:45:52.998Z,13.30
2022-10-16T02:50:54.752Z,13.30
2022-10-16T02:55:56.658Z,13.20
2022-10-16T03:00:58.597Z,13.20
2022-10-16T03:06:00.511Z,13.10
2022-10-16T03:11:02.271Z,13.10
2022-10-16T03:16:04.313Z,13.10
2022-10-16T03:21:06.119Z,13.10
2022-10-16T03:26:07.890Z,13.00
2022-10-16T03:31:09.654Z,13.00
2022-10-16T03:36:11.487Z,13.00
2022-10-16T03:41:13.291Z,13.00
2022-10-16T03:46:15.122Z,13.00
2022-10-16T03:51:17.134Z,13.00
2022-10-16T03:56:18.923Z,12.90
2022-10-16T04:01:20.789Z,12.80
2022-10-16T04:06:22.687Z,12.80
2022-10-16T04:11:24.531Z,12.70
2022-10-16T04:16:26.277Z,12.70
2022-10-16T04:21:28.053Z,12.60
2022-10-16T04:26:30.294Z,12.50
2022-10-16T04:31:32.083Z,12.40
2022-10-16T04:36:34.059Z,12.40
2022-10-16T04:41:35.858Z,12.30
2022-10-16T04:46:37.689Z,12.20
2022-10-16T04:51:39.487Z,12.20
2022-10-16T04:56:47.630Z,12.10
2022-10-16T05:01:50.075Z,12.10
2022-10-16T05:06:51.876Z,12.00
2022-10-16T05:11:53.716Z,12.00
2022-10-16T05:16:55.711Z,12.00
2022-10-16T05:21:57.582Z,12.00
2022-10-16T05:26:59.379Z,12.00
2022-10-16T05:32:01.114Z,12.00
2022-10-16T05:37:02.888Z,12.00
2022-10-16T05:42:05.552Z,12.00
2022-10-16T05:47:07.510Z,12.10
2022-10-16T05:52:09.260Z,12.10
2022-10-16T05:57:11.088Z,12.10
2022-10-16T06:02:14.415Z,12.20
2022-10-16T06:07:16.204Z,12.20
2022-10-16T06:12:18.177Z,12.10
2022-10-16T06:17:19.963Z,12.10
2022-10-16T06:22:21.759Z,12.10
2022-10-16T06:27:24.820Z,12.10
2022-10-16T06:32:28.014Z,12.30
2022-10-16T06:37:29.833Z,12.60
2022-10-16T06:42:31.678Z,12.90
2022-10-16T06:47:33.428Z,13.20
2022-10-16T06:52:35.600Z,13.40
2022-10-16T06:57:37.392Z,13.60
2022-10-16T07:02:39.382Z,13.90
2022-10-16T07:07:41.140Z,14.10
2022-10-16T07:12:43.024Z,14.20
2022-10-16T07:17:44.776Z,14.30
2022-10-16T07:22:47.012Z,14.40
2022-10-16T07:27:48.850Z,14.50
2022-10-16T07:32:50.679Z,14.60
2022-10-16T07:37:52.450Z,14.60
2022-10-16T07:42:54.379Z,14.60
2022-10-16T07:47:56.636Z,14.70
2022-10-16T07:52:58.371Z,14.70
2022-10-16T07:58:00.131Z,14.80
2022-10-16T08:03:01.954Z,14.90
2022-10-16T08:08:03.955Z,15.10
2022-10-16T08:13:08.917Z,15.30
2022-10-16T08:18:11.767Z,15.50
2022-10-16T08:23:14.246Z,15.80
2022-10-16T08:28:16.647Z,16.10
2022-10-16T08:33:19.549Z,16.30
2022-10-16T08:38:21.811Z,16.40
2022-10-16T08:43:41.703Z,16.50
2022-10-16T08:48:48.376Z,16.50
2022-10-16T08:53:53.249Z,16.50
2022-10-16T08:58:59.658Z,16.60
2022-10-16T09:04:06.139Z,16.60
2022-10-16T09:09:30.914Z,16.70
2022-10-16T09:14:53.707Z,16.90
2022-10-16T09:20:17.740Z,17.00
2022-10-16T09:25:22.371Z,17.00
2022-10-16T09:30:28.665Z,17.20
2022-10-16T09:35:44.848Z,17.20
2022-10-16T09:40:49.529Z,17.20
2022-10-16T09:46:08.641Z,17.50
2022-10-16T09:51:26.804Z,17.60
2022-10-16T09:56:30.388Z,17.70
2022-10-16T10:01:53.651Z,17.80
2022-10-16T10:06:59.495Z,17.90
2022-10-16T10:17:17.543Z,18.40
2022-10-16T10:22:43.223Z,18.50
2022-10-16T10:28:18.699Z,18.80
2022-10-16T10:33:41.452Z,18.90
2022-10-16T10:38:57.766Z,19.10
2022-10-16T10:44:22.097Z,19.20
2022-10-16T10:49:32.376Z,19.30
2022-10-16T10:54:50.872Z,19.40
2022-10-16T11:00:11.586Z,19.50
2022-10-16T11:05:34.244Z,19.60
2022-10-16T11:10:54.179Z,19.60
2022-10-16T11:16:01.438Z,19.70
2022-10-16T11:21:12.808Z,19.70
2022-10-16T11:26:28.242Z,19.70
2022-10-16T11:31:34.521Z,19.90
2022-10-16T11:36:54.308Z,20.00
2022-10-16T11:42:10.123Z,20.00
2022-10-16T11:47:58.165Z,20.10
2022-10-16T11:53:14.467Z,20.20
2022-10-16T11:58:40.035Z,20.20
2022-10-16T12:03:50.669Z,20.40
2022-10-16T12:08:54.569Z,20.60
2022-10-16T12:14:28.289Z,20.70
2022-10-16T12:19:31.427Z,20.90
2022-10-16T12:24:43.158Z,21.10
2022-10-16T12:29:45.711Z,21.30
2022-10-16T12:34:49.278Z,21.30
2022-10-16T12:39:53.724Z,21.30
2022-10-16T12:44:56.102Z,21.10
2022-10-16T12:49:58.831Z,20.90
2022-10-16T12:55:01.671Z,20.70
2022-10-16T13:00:21.530Z,20.70
2022-10-16T13:05:51.383Z,20.80
2022-10-16T13:11:15.048Z,20.70
2022-10-16T13:16:38.470Z,20.50
2022-10-16T13:22:13.563Z,20.30
2022-10-16T13:28:00.547Z,20.30
2022-10-16T13:33:18.426Z,20.10
2022-10-16T13:38:23.191Z,19.90
2022-10-16T13:43:38.239Z,19.60
2022-10-16T13:48:41.087Z,19.50
2022-10-16T13:53:43.948Z,19.40
2022-10-16T13:58:46.028Z,19.20
2022-10-16T14:03:49.658Z,19.20
2022-10-16T14:09:03.393Z,19.10
2022-10-16T14:14:05.421Z,19.10
2022-10-16T14:19:10.411Z,19.10
2022-10-16T14:24:13.881Z,19.10
2022-10-16T14:29:20.662Z,19.10
2022-10-16T14:34:37.594Z,19.10
2022-10-16T14:39:41.429Z,18.90
2022-10-16T14:44:43.414Z,18.90
2022-10-16T14:49:45.210Z,18.70
2022-10-16T14:54:50.077Z,18.60
2022-10-16T14:59:54.931Z,18.40
2022-10-16T15:04:57.343Z,18.30
2022-10-16T15:09:59.422Z,18.10
2022-10-16T15:15:01.224Z,18.00
2022-10-16T15:20:03.164Z,17.80
2022-10-16T15:25:32.484Z,17.60
2022-10-16T15:30:34.416Z,17.40
2022-10-16T15:35:36.214Z,17.30
2022-10-16T15:40:38.518Z,17.20
2022-10-16T15:45:40.908Z,17.10
2022-10-16T15:55:46.151Z,16.90
2022-10-16T16:00:56.096Z,16.80
2022-10-16T16:06:04.235Z,16.60
2022-10-16T16:11:08.424Z,16.60
2022-10-16T16:16:12.976Z,16.50
2022-10-16T16:21:14.811Z,16.40
2022-10-16T16:26:26.949Z,16.30
2022-10-16T16:31:30.596Z,16.20
2022-10-16T16:36:32.927Z,16.10
2022-10-16T16:41:34.827Z,16.00
2022-10-16T16:46:36.949Z,16.00
2022-10-16T16:51:40.588Z,15.80
2022-10-16T16:56:45.987Z,15.70
2022-10-16T17:01:49.966Z,15.60
2022-10-16T17:06:55.570Z,15.50
2022-10-16T17:11:57.365Z,15.40
2022-10-16T17:16:59.521Z,15.30
2022-10-16T17:27:08.113Z,15.10
2022-10-16T17:32:09.932Z,15.00
2022-10-16T17:37:15.651Z,15.00
2022-10-16T17:42:19.896Z,14.90
2022-10-16T17:47:21.672Z,14.80
2022-10-16T17:52:23.437Z,14.70
2022-10-16T17:57:25.420Z,14.70
2022-10-16T18:02:27.492Z,14.60
2022-10-16T18:07:29.522Z,14.50
2022-10-16T18:12:31.688Z,14.60
2022-10-16T18:17:38.009Z,14.50
2022-10-16T18:22:40.136Z,14.40
2022-10-16T18:27:41.935Z,14.40
2022-10-16T18:32:43.758Z,14.30
2022-10-16T18:37:45.979Z,14.30
2022-10-16T18:42:47.780Z,14.30
2022-10-16T18:47:49.708Z,14.30
2022-10-16T18:52:51.585Z,14.30
2022-10-16T18:57:55.103Z,14.30
2022-10-16T19:02:57.539Z,14.30
2022-10-16T19:07:59.307Z,14.30
2022-10-16T19:13:01.051Z,14.30
2022-10-16T19:18:02.816Z,14.30
2022-10-16T19:23:04.661Z,14.30
2022-10-16T19:28:08.386Z,14.40
2022-10-16T19:33:10.153Z,14.30
2022-10-16T19:38:11.992Z,14.30
2022-10-16T19:43:13.781Z,14.30
2022-10-16T19:48:15.584Z,14.30
2022-10-16T19:53:17.418Z,14.40
2022-10-16T19:58:19.170Z,14.40
2022-10-16T20:03:21.290Z,14.40
2022-10-16T20:08:24.397Z,14.40
2022-10-16T20:13:26.496Z,14.50
2022-10-16T20:18:28.380Z,14.50
2022-10-16T20:23:30.168Z,14.50
2022-10-16T20:28:32.541Z,14.50
2022-10-16T20:33:34.668Z,14.40
2022-10-16T20:38:37.409Z,14.40
2022-10-16T20:43:44.877Z,14.40
2022-10-16T20:48:47.752Z,14.30
2022-10-16T20:53:56.422Z,14.40
2022-10-16T20:58:58.361Z,14.40
2022-10-16T21:04:02.247Z,14.40
2022-10-16T21:09:06.524Z,14.40
2022-10-16T21:14:09.317Z,14.30
2022-10-16T21:19:11.102Z,14.30
2022-10-16T21:24:16.568Z,14.30
2022-10-16T21:29:20.155Z,14.30
2022-10-16T21:34:21.978Z,14.30
2022-10-16T21:39:23.739Z,14.30
2022-10-16T21:44:25.539Z,14.30
2022-10-16T21:49:27.459Z,14.30
2022-10-16T21:54:29.317Z,14.20
2022-10-16T21:59:31.071Z,14.20
2022-10-16T22:04:33.164Z,14.10
2022-10-16T22:09:34.927Z,14.00
2022-10-16T22:14:36.687Z,13.90
2022-10-16T22:19:38.450Z,13.90
2022-10-16T22:24:40.245Z,13.80
2022-10-16T22:29:42.024Z,13.70
2022-10-16T22:34:43.955Z,13.60
2022-10-16T22:39:45.766Z,13.50
2022-10-16T22:44:47.519Z,13.40
2022-10-16T22:49:49.323Z,13.20
2022-10-16T22:54:51.106Z,13.10
2022-10-16T22:59:52.853Z,13.00
2022-10-16T23:04:54.671Z,12.90
2022-10-16T23:09:56.493Z,12.80
2022-10-16T23:14:58.246Z,12.80
2022-10-16T23:20:00.028Z,12.80
2022-10-16T23:25:01.828Z,12.80
2022-10-16T23:30:06.617Z,12.70
2022-10-16T23:35:08.761Z,12.70
2022-10-16T23:40:11.507Z,12.60
2022-10-16T23:45:13.281Z,12.50
2022-10-16T23:50:15.309Z,12.50
2022-10-16T23:55:17.136Z,12.40
